createdAt,value
2022-12-23T00:00:08.378Z,23.89
2022-12-23T00:00:18.380Z,23.90
2022-12-23T00:00:28.413Z,23.90
2022-12-23T00:00:38.541Z,23.91
2022-12-23T00:00:48.552Z,23.92
2022-12-23T00:00:58.584Z,23.92
2022-12-23T00:01:08.595Z,23.92
2022-12-23T00:01:18.729Z,23.93
2022-12-23T00:01:28.929Z,23.92
2022-12-23T00:01:39.015Z,23.89
2022-12-23T00:01:49.171Z,23.84
2022-12-23T00:01:59.440Z,23.82
2022-12-23T00:02:09.601Z,23.82
2022-12-23T00:02:19.676Z,23.80
2022-12-23T00:02:29.943Z,23.79
2022-12-23T00:02:40.084Z,23.77
2022-12-23T00:02:50.221Z,23.75
2022-12-23T00:03:00.438Z,23.73
2022-12-23T00:03:10.494Z,23.73
2022-12-23T00:03:20.436Z,23.72
2022-12-23T00:03:30.553Z,23.72
2022-12-23T00:03:40.574Z,23.71
2022-12-23T00:03:50.469Z,23.70
2022-12-23T00:04:00.611Z,23.71
2022-12-23T00:04:10.898Z,23.68
2022-12-23T00:04:20.907Z,23.69
2022-12-23T00:04:30.812Z,23.67
2022-12-23T00:04:41.190Z,23.66
2022-12-23T00:04:51.192Z,23.67
2022-12-23T00:05:01.219Z,23.66
2022-12-23T00:05:11.210Z,23.68
2022-12-23T00:05:21.235Z,23.67
2022-12-23T00:05:37.334Z,23.67
2022-12-23T00:05:41.252Z,23.62
2022-12-23T00:05:51.267Z,23.65
2022-12-23T00:06:01.285Z,23.68
2022-12-23T00:06:11.283Z,23.70
2022-12-23T00:06:21.309Z,23.70
2022-12-23T00:06:31.427Z,23.71
2022-12-23T00:06:41.436Z,23.73
2022-12-23T00:06:51.457Z,23.74
2022-12-23T00:07:01.439Z,23.75
2022-12-23T00:07:11.445Z,23.75
2022-12-23T00:07:21.446Z,23.75
2022-12-23T00:07:31.456Z,23.74
2022-12-23T00:07:41.467Z,23.74
2022-12-23T00:07:51.525Z,23.75
2022-12-23T00:08:01.521Z,23.75
2022-12-23T00:08:11.557Z,23.76
2022-12-23T00:08:21.578Z,23.76
2022-12-23T00:08:31.595Z,23.74
2022-12-23T00:08:41.601Z,23.73
2022-12-23T00:08:51.600Z,23.72
2022-12-23T00:09:01.594Z,23.73
2022-12-23T00:09:11.599Z,23.74
2022-12-23T00:09:21.602Z,23.74
2022-12-23T00:09:31.613Z,23.74
2022-12-23T00:09:41.628Z,23.73
2022-12-23T00:09:51.630Z,23.74
2022-12-23T00:10:01.703Z,23.75
2022-12-23T00:10:11.687Z,23.76
2022-12-23T00:10:21.811Z,23.76
2022-12-23T00:10:32.076Z,23.76
2022-12-23T00:10:42.184Z,23.74
2022-12-23T00:10:52.183Z,23.73
2022-12-23T00:11:02.466Z,23.72
2022-12-23T00:11:12.443Z,23.73
2022-12-23T00:11:22.578Z,23.73
2022-12-23T00:11:32.833Z,23.73
2022-12-23T00:11:42.837Z,23.73
2022-12-23T00:11:52.847Z,23.73
2022-12-23T00:12:02.868Z,23.73
2022-12-23T00:12:12.905Z,23.74
2022-12-23T00:12:22.899Z,23.74
2022-12-23T00:12:32.905Z,23.73
2022-12-23T00:12:42.910Z,23.69
2022-12-23T00:12:52.917Z,23.67
2022-12-23T00:13:02.934Z,23.68
2022-12-23T00:13:12.937Z,23.69
2022-12-23T00:13:22.938Z,23.70
2022-12-23T00:13:32.959Z,23.69
2022-12-23T00:13:42.962Z,23.69
2022-12-23T00:13:52.966Z,23.70
2022-12-23T00:14:03.091Z,23.72
2022-12-23T00:14:18.488Z,23.72
2022-12-23T00:14:23.213Z,23.68
2022-12-23T00:14:33.215Z,23.72
2022-12-23T00:14:43.226Z,23.73
2022-12-23T00:14:53.245Z,23.75
2022-12-23T00:15:03.247Z,23.75
2022-12-23T00:15:13.247Z,23.75
2022-12-23T00:15:23.253Z,23.75
2022-12-23T00:15:33.273Z,23.76
2022-12-23T00:15:43.273Z,23.76
2022-12-23T00:15:53.292Z,23.76
2022-12-23T00:16:03.409Z,23.75
2022-12-23T00:16:13.427Z,23.76
2022-12-23T00:16:23.460Z,23.75
2022-12-23T00:16:33.474Z,23.76
2022-12-23T00:16:43.606Z,23.76
2022-12-23T00:16:53.960Z,23.75
2022-12-23T00:17:09.283Z,23.74
2022-12-23T00:17:23.486Z,23.67
2022-12-23T00:17:24.327Z,23.60
2022-12-23T00:17:34.215Z,23.60
2022-12-23T00:17:44.232Z,23.59
2022-12-23T00:17:54.231Z,23.56
2022-12-23T00:18:04.242Z,23.55
2022-12-23T00:18:14.251Z,23.54
2022-12-23T00:18:24.284Z,23.54
2022-12-23T00:18:34.263Z,23.52
2022-12-23T00:18:44.264Z,23.50
2022-12-23T00:18:54.272Z,23.47
2022-12-23T00:19:04.402Z,23.46
2022-12-23T00:19:14.425Z,23.42
2022-12-23T00:19:24.437Z,23.40
2022-12-23T00:19:34.448Z,23.37
2022-12-23T00:19:44.448Z,23.31
2022-12-23T00:19:54.709Z,23.27
2022-12-23T00:20:04.734Z,23.26
2022-12-23T00:20:14.744Z,23.26
2022-12-23T00:20:24.732Z,23.26
2022-12-23T00:20:34.739Z,23.28
2022-12-23T00:20:44.876Z,23.30
2022-12-23T00:20:54.879Z,23.32
2022-12-23T00:21:08.620Z,23.33
2022-12-23T00:21:14.936Z,23.32
2022-12-23T00:21:24.940Z,23.36
2022-12-23T00:21:34.938Z,23.38
2022-12-23T00:21:45.102Z,23.41
2022-12-23T00:21:55.088Z,23.43
2022-12-23T00:22:05.208Z,23.45
2022-12-23T00:22:15.223Z,23.47
2022-12-23T00:22:25.498Z,23.49
2022-12-23T00:22:35.497Z,23.52
2022-12-23T00:22:45.512Z,23.53
2022-12-23T00:22:55.509Z,23.56
2022-12-23T00:23:05.638Z,23.59
2022-12-23T00:23:15.636Z,23.60
2022-12-23T00:23:25.752Z,23.62
2022-12-23T00:23:35.760Z,23.64
2022-12-23T00:23:45.767Z,23.65
2022-12-23T00:23:55.774Z,23.65
2022-12-23T00:24:05.909Z,23.65
2022-12-23T00:24:15.908Z,23.68
2022-12-23T00:24:25.910Z,23.68
2022-12-23T00:24:35.919Z,23.69
2022-12-23T00:24:45.948Z,23.66
2022-12-23T00:24:55.948Z,23.63
2022-12-23T00:25:05.940Z,23.62
2022-12-23T00:25:16.065Z,23.62
2022-12-23T00:25:26.074Z,23.62
2022-12-23T00:25:36.197Z,23.61
2022-12-23T00:25:46.337Z,23.61
2022-12-23T00:25:56.327Z,23.59
2022-12-23T00:26:06.335Z,23.56
2022-12-23T00:26:16.732Z,23.51
2022-12-23T00:26:26.712Z,23.47
2022-12-23T00:26:36.842Z,23.46
2022-12-23T00:26:47.094Z,23.47
2022-12-23T00:26:57.108Z,23.48
2022-12-23T00:27:07.118Z,23.48
2022-12-23T00:27:17.118Z,23.49
2022-12-23T00:27:27.134Z,23.50
2022-12-23T00:27:37.829Z,23.51
2022-12-23T00:27:47.190Z,23.52
2022-12-23T00:27:57.197Z,23.52
2022-12-23T00:28:07.229Z,23.54
2022-12-23T00:28:17.198Z,23.57
2022-12-23T00:28:27.198Z,23.58
2022-12-23T00:28:37.205Z,23.59
2022-12-23T00:28:47.213Z,23.61
2022-12-23T00:28:57.222Z,23.62
2022-12-23T00:29:07.234Z,23.65
2022-12-23T00:29:17.260Z,23.65
2022-12-23T00:29:27.272Z,23.67
2022-12-23T00:29:37.270Z,23.68
2022-12-23T00:29:47.275Z,23.71
2022-12-23T00:29:57.441Z,23.72
2022-12-23T00:30:07.427Z,23.73
2022-12-23T00:30:17.435Z,23.74
2022-12-23T00:30:27.446Z,23.76
2022-12-23T00:30:37.442Z,23.73
2022-12-23T00:30:47.730Z,23.74
2022-12-23T00:30:57.780Z,23.74
2022-12-23T00:31:07.798Z,23.75
2022-12-23T00:31:17.856Z,23.74
2022-12-23T00:31:27.965Z,23.74
2022-12-23T00:31:38.047Z,23.73
2022-12-23T00:31:48.127Z,23.73
2022-12-23T00:31:58.231Z,23.74
2022-12-23T00:32:08.229Z,23.73
2022-12-23T00:32:18.435Z,23.73
2022-12-23T00:32:28.506Z,23.72
2022-12-23T00:32:38.503Z,23.73
2022-12-23T00:32:48.500Z,23.73
2022-12-23T00:32:58.888Z,23.72
2022-12-23T00:33:08.922Z,23.71
2022-12-23T00:33:18.918Z,23.71
2022-12-23T00:33:28.934Z,23.72
2022-12-23T00:33:38.937Z,23.72
2022-12-23T00:33:48.943Z,23.72
2022-12-23T00:33:59.064Z,23.72
2022-12-23T00:34:09.098Z,23.72
2022-12-23T00:34:19.090Z,23.70
2022-12-23T00:34:29.095Z,23.71
2022-12-23T00:34:39.342Z,23.68
2022-12-23T00:34:49.348Z,23.66
2022-12-23T00:34:59.346Z,23.65
2022-12-23T00:35:09.345Z,23.65
2022-12-23T00:35:19.478Z,23.64
2022-12-23T00:35:29.477Z,23.63
2022-12-23T00:35:39.705Z,23.64
2022-12-23T00:35:49.692Z,23.65
2022-12-23T00:35:59.755Z,23.65
2022-12-23T00:36:09.864Z,23.65
2022-12-23T00:36:19.966Z,23.67
2022-12-23T00:36:30.162Z,23.68
2022-12-23T00:36:40.103Z,23.68
2022-12-23T00:36:50.154Z,23.69
2022-12-23T00:37:00.153Z,23.71
2022-12-23T00:37:10.156Z,23.71
2022-12-23T00:37:20.157Z,23.72
2022-12-23T00:37:30.171Z,23.72
2022-12-23T00:37:40.177Z,23.72
2022-12-23T00:37:50.184Z,23.73
2022-12-23T00:38:00.194Z,23.75
2022-12-23T00:38:10.211Z,23.75
2022-12-23T00:38:20.194Z,23.77
2022-12-23T00:38:30.202Z,23.78
2022-12-23T00:38:40.216Z,23.79
2022-12-23T00:38:50.202Z,23.80
2022-12-23T00:39:00.220Z,23.79
2022-12-23T00:39:10.255Z,23.81
2022-12-23T00:39:20.245Z,23.81
2022-12-23T00:39:30.245Z,23.82
2022-12-23T00:39:40.259Z,23.83
2022-12-23T00:39:54.727Z,23.83
2022-12-23T00:40:06.225Z,23.79
2022-12-23T00:40:10.295Z,23.76
2022-12-23T00:40:20.306Z,23.79
2022-12-23T00:40:30.316Z,23.79
2022-12-23T00:40:40.319Z,23.81
2022-12-23T00:40:50.417Z,23.81
2022-12-23T00:41:00.546Z,23.83
2022-12-23T00:41:10.552Z,23.83
2022-12-23T00:41:20.559Z,23.84
2022-12-23T00:41:30.567Z,23.84
2022-12-23T00:41:40.574Z,23.86
2022-12-23T00:41:50.597Z,23.87
2022-12-23T00:42:00.635Z,23.88
2022-12-23T00:42:10.670Z,23.89
2022-12-23T00:42:20.796Z,23.89
2022-12-23T00:42:30.794Z,23.90
2022-12-23T00:42:41.053Z,23.89
2022-12-23T00:42:51.053Z,23.89
2022-12-23T00:43:01.059Z,23.88
2022-12-23T00:43:11.169Z,23.90
2022-12-23T00:43:21.173Z,23.89
2022-12-23T00:43:31.153Z,23.91
2022-12-23T00:43:41.156Z,23.90
2022-12-23T00:43:51.160Z,23.91
2022-12-23T00:44:01.283Z,23.90
2022-12-23T00:44:11.283Z,23.90
2022-12-23T00:44:21.537Z,23.91
2022-12-23T00:44:31.582Z,23.91
2022-12-23T00:44:41.572Z,23.90
2022-12-23T00:44:51.563Z,23.91
2022-12-23T00:45:01.577Z,23.90
2022-12-23T00:45:11.583Z,23.91
2022-12-23T00:45:21.611Z,23.91
2022-12-23T00:45:31.704Z,23.92
2022-12-23T00:45:41.740Z,23.91
2022-12-23T00:45:51.817Z,23.92
2022-12-23T00:46:01.853Z,23.92
2022-12-23T00:46:11.940Z,23.92
2022-12-23T00:46:22.083Z,23.92
2022-12-23T00:46:32.165Z,23.92
2022-12-23T00:46:42.078Z,23.92
2022-12-23T00:46:52.123Z,23.90
2022-12-23T00:47:02.128Z,23.86
2022-12-23T00:47:12.144Z,23.85
2022-12-23T00:47:22.154Z,23.81
2022-12-23T00:47:32.168Z,23.79
2022-12-23T00:47:42.169Z,23.77
2022-12-23T00:47:52.209Z,23.76
2022-12-23T00:48:02.194Z,23.77
2022-12-23T00:48:12.200Z,23.76
2022-12-23T00:48:22.215Z,23.74
2022-12-23T00:48:32.222Z,23.72
2022-12-23T00:48:42.336Z,23.71
2022-12-23T00:48:52.339Z,23.72
2022-12-23T00:49:02.347Z,23.72
2022-12-23T00:49:12.361Z,23.72
2022-12-23T00:49:22.348Z,23.72
2022-12-23T00:49:32.610Z,23.73
2022-12-23T00:49:42.806Z,23.73
2022-12-23T00:49:52.823Z,23.74
2022-12-23T00:50:03.106Z,23.74
2022-12-23T00:50:13.083Z,23.74
2022-12-23T00:50:23.112Z,23.74
2022-12-23T00:50:33.108Z,23.72
2022-12-23T00:50:43.111Z,23.71
2022-12-23T00:50:53.119Z,23.71
2022-12-23T00:51:03.137Z,23.68
2022-12-23T00:51:13.149Z,23.65
2022-12-23T00:51:23.288Z,23.63
2022-12-23T00:51:33.296Z,23.62
2022-12-23T00:51:43.555Z,23.60
2022-12-23T00:51:53.552Z,23.57
2022-12-23T00:52:03.669Z,23.57
2022-12-23T00:52:13.943Z,23.56
2022-12-23T00:52:23.951Z,23.56
2022-12-23T00:52:33.960Z,23.56
2022-12-23T00:52:44.340Z,23.57
2022-12-23T00:52:54.337Z,23.58
2022-12-23T00:53:04.455Z,23.58
2022-12-23T00:53:14.716Z,23.59
2022-12-23T00:53:24.778Z,23.61
2022-12-23T00:53:34.783Z,23.62
2022-12-23T00:53:44.791Z,23.61
2022-12-23T00:53:54.804Z,23.63
2022-12-23T00:54:04.813Z,23.65
2022-12-23T00:54:14.830Z,23.65
2022-12-23T00:54:24.863Z,23.66
2022-12-23T00:54:34.856Z,23.66
2022-12-23T00:54:44.858Z,23.66
2022-12-23T00:54:54.862Z,23.66
2022-12-23T00:55:04.980Z,23.66
2022-12-23T00:55:14.975Z,23.66
2022-12-23T00:55:24.985Z,23.66
2022-12-23T00:55:34.990Z,23.65
2022-12-23T00:55:44.986Z,23.66
2022-12-23T00:55:54.988Z,23.67
2022-12-23T00:56:05.270Z,23.67
2022-12-23T00:56:15.325Z,23.69
2022-12-23T00:56:25.327Z,23.69
2022-12-23T00:56:35.336Z,23.71
2022-12-23T00:56:45.354Z,23.72
2022-12-23T00:56:55.345Z,23.72
2022-12-23T00:57:05.471Z,23.74
2022-12-23T00:57:15.476Z,23.74
2022-12-23T00:57:25.476Z,23.74
2022-12-23T00:57:35.492Z,23.75
2022-12-23T00:57:45.778Z,23.75
2022-12-23T00:57:55.774Z,23.75
2022-12-23T00:58:05.898Z,23.75
2022-12-23T00:58:16.185Z,23.77
2022-12-23T00:58:26.165Z,23.78
2022-12-23T00:58:36.175Z,23.78
2022-12-23T00:58:46.554Z,23.78
2022-12-23T00:58:56.552Z,23.81
2022-12-23T00:59:06.705Z,23.81
2022-12-23T00:59:16.946Z,23.81
2022-12-23T00:59:26.965Z,23.81
2022-12-23T00:59:36.975Z,23.83
2022-12-23T00:59:46.984Z,23.84
2022-12-23T00:59:57.002Z,23.85
2022-12-23T01:00:07.147Z,23.86
2022-12-23T01:00:17.134Z,23.87
2022-12-23T01:00:27.171Z,23.87
2022-12-23T01:00:37.171Z,23.88
2022-12-23T01:00:47.330Z,23.88
2022-12-23T01:00:57.475Z,23.90
2022-12-23T01:01:07.558Z,23.90
2022-12-23T01:01:17.648Z,23.90
2022-12-23T01:01:28.120Z,23.90
2022-12-23T01:01:38.177Z,23.90
2022-12-23T01:01:48.265Z,23.90
2022-12-23T01:01:58.546Z,23.89
2022-12-23T01:02:08.589Z,23.86
2022-12-23T01:02:18.586Z,23.85
2022-12-23T01:02:28.638Z,23.85
2022-12-23T01:02:38.825Z,23.82
2022-12-23T01:02:48.827Z,23.79
2022-12-23T01:02:58.999Z,23.76
2022-12-23T01:03:09.377Z,23.75
2022-12-23T01:03:19.260Z,23.74
2022-12-23T01:03:29.342Z,23.74
2022-12-23T01:03:39.381Z,23.74
2022-12-23T01:03:49.433Z,23.75
2022-12-23T01:03:59.419Z,23.75
2022-12-23T01:04:09.417Z,23.75
2022-12-23T01:04:19.417Z,23.76
2022-12-23T01:04:29.431Z,23.76
2022-12-23T01:04:39.434Z,23.78
2022-12-23T01:04:49.440Z,23.79
2022-12-23T01:04:59.436Z,23.79
2022-12-23T01:05:09.569Z,23.79
2022-12-23T01:05:19.560Z,23.78
2022-12-23T01:05:29.788Z,23.79
2022-12-23T01:05:39.791Z,23.80
2022-12-23T01:05:49.812Z,23.80
2022-12-23T01:05:59.802Z,23.79
2022-12-23T01:06:09.931Z,23.79
2022-12-23T01:06:19.933Z,23.80
2022-12-23T01:06:30.196Z,23.81
2022-12-23T01:06:40.209Z,23.80
2022-12-23T01:06:50.207Z,23.80
2022-12-23T01:07:00.213Z,23.80
2022-12-23T01:07:10.224Z,23.81
2022-12-23T01:07:20.248Z,23.82
2022-12-23T01:07:30.243Z,23.83
2022-12-23T01:07:40.254Z,23.83
2022-12-23T01:07:50.336Z,23.85
2022-12-23T01:08:00.341Z,23.85
2022-12-23T01:08:10.346Z,23.86
2022-12-23T01:08:20.378Z,23.88
2022-12-23T01:08:30.389Z,23.87
2022-12-23T01:08:40.387Z,23.88
2022-12-23T01:08:50.388Z,23.89
2022-12-23T01:09:00.409Z,23.91
2022-12-23T01:09:10.410Z,23.90
2022-12-23T01:09:20.426Z,23.92
2022-12-23T01:09:30.428Z,23.93
2022-12-23T01:09:40.444Z,23.93
2022-12-23T01:09:50.437Z,23.93
2022-12-23T01:10:00.454Z,23.93
2022-12-23T01:10:10.474Z,23.94
2022-12-23T01:10:20.588Z,23.94
2022-12-23T01:10:30.851Z,23.95
2022-12-23T01:10:40.857Z,23.95
2022-12-23T01:10:50.860Z,23.95
2022-12-23T01:11:00.866Z,23.95
2022-12-23T01:11:10.879Z,23.95
2022-12-23T01:11:21.027Z,23.94
2022-12-23T01:11:31.021Z,23.95
2022-12-23T01:11:41.036Z,23.95
2022-12-23T01:11:51.037Z,23.96
2022-12-23T01:12:01.147Z,23.96
2022-12-23T01:12:11.301Z,23.97
2022-12-23T01:12:21.302Z,23.96
2022-12-23T01:12:31.375Z,23.96
2022-12-23T01:12:41.372Z,23.97
2022-12-23T01:12:51.377Z,23.96
2022-12-23T01:13:01.379Z,23.97
2022-12-23T01:13:11.383Z,23.97
2022-12-23T01:13:21.532Z,23.97
2022-12-23T01:13:31.513Z,23.97
2022-12-23T01:13:41.632Z,23.96
2022-12-23T01:13:51.767Z,23.95
2022-12-23T01:14:01.888Z,23.95
2022-12-23T01:14:11.891Z,23.94
2022-12-23T01:14:22.159Z,23.91
2022-12-23T01:14:32.169Z,23.90
2022-12-23T01:14:42.171Z,23.90
2022-12-23T01:14:52.200Z,23.90
2022-12-23T01:15:02.227Z,23.90
2022-12-23T01:15:12.231Z,23.90
2022-12-23T01:15:22.237Z,23.89
2022-12-23T01:15:32.244Z,23.90
2022-12-23T01:15:42.362Z,23.90
2022-12-23T01:15:52.401Z,23.90
2022-12-23T01:16:02.655Z,23.91
2022-12-23T01:16:17.133Z,23.91
2022-12-23T01:16:22.743Z,23.87
2022-12-23T01:16:32.752Z,23.89
2022-12-23T01:16:42.853Z,23.90
2022-12-23T01:16:52.925Z,23.91
2022-12-23T01:17:03.008Z,23.90
2022-12-23T01:17:13.272Z,23.89
2022-12-23T01:17:23.252Z,23.89
2022-12-23T01:17:33.129Z,23.89
2022-12-23T01:17:43.375Z,23.89
2022-12-23T01:17:53.369Z,23.89
2022-12-23T01:18:03.488Z,23.89
2022-12-23T01:18:13.748Z,23.88
2022-12-23T01:18:23.749Z,23.88
2022-12-23T01:18:33.762Z,23.88
2022-12-23T01:18:43.813Z,23.88
2022-12-23T01:18:53.798Z,23.87
2022-12-23T01:19:03.806Z,23.87
2022-12-23T01:19:13.807Z,23.88
2022-12-23T01:19:23.823Z,23.87
2022-12-23T01:19:33.823Z,23.87
2022-12-23T01:19:43.837Z,23.88
2022-12-23T01:19:53.837Z,23.88
2022-12-23T01:20:03.975Z,23.89
2022-12-23T01:20:13.974Z,23.89
2022-12-23T01:20:24.112Z,23.90
2022-12-23T01:20:34.117Z,23.91
2022-12-23T01:20:44.135Z,23.90
2022-12-23T01:20:54.137Z,23.90
2022-12-23T01:21:04.269Z,23.92
2022-12-23T01:21:14.271Z,23.92
2022-12-23T01:21:24.393Z,23.93
2022-12-23T01:21:34.653Z,23.93
2022-12-23T01:21:44.653Z,23.94
2022-12-23T01:21:54.656Z,23.95
2022-12-23T01:22:05.039Z,23.95
2022-12-23T01:22:15.045Z,23.96
2022-12-23T01:22:25.036Z,23.96
2022-12-23T01:22:35.036Z,23.97
2022-12-23T01:22:45.161Z,23.97
2022-12-23T01:22:55.167Z,23.98
2022-12-23T01:23:05.288Z,23.98
2022-12-23T01:23:15.305Z,23.99
2022-12-23T01:23:25.293Z,24.00
2022-12-23T01:23:35.297Z,23.99
2022-12-23T01:23:45.438Z,23.99
2022-12-23T01:23:55.455Z,23.99
2022-12-23T01:24:05.456Z,24.00
2022-12-23T01:24:15.461Z,24.00
2022-12-23T01:24:25.469Z,23.99
2022-12-23T01:24:35.464Z,24.00
2022-12-23T01:24:45.595Z,24.01
2022-12-23T01:24:55.628Z,24.01
2022-12-23T01:25:05.602Z,24.01
2022-12-23T01:25:15.602Z,24.02
2022-12-23T01:25:25.861Z,24.02
2022-12-23T01:25:35.860Z,24.01
2022-12-23T01:25:45.932Z,23.97
2022-12-23T01:25:55.941Z,23.93
2022-12-23T01:26:05.970Z,23.87
2022-12-23T01:26:15.972Z,23.83
2022-12-23T01:26:25.970Z,23.81
2022-12-23T01:26:35.998Z,23.80
2022-12-23T01:26:46.001Z,23.80
2022-12-23T01:26:56.004Z,23.79
2022-12-23T01:27:06.373Z,23.80
2022-12-23T01:27:16.372Z,23.81
2022-12-23T01:27:26.508Z,23.82
2022-12-23T01:27:36.755Z,23.80
2022-12-23T01:27:46.868Z,23.80
2022-12-23T01:27:56.884Z,23.81
2022-12-23T01:28:07.154Z,23.81
2022-12-23T01:28:17.151Z,23.82
2022-12-23T01:28:27.176Z,23.82
2022-12-23T01:28:37.167Z,23.82
2022-12-23T01:28:47.180Z,23.80
2022-12-23T01:28:57.178Z,23.80
2022-12-23T01:29:07.191Z,23.80
2022-12-23T01:29:17.205Z,23.80
2022-12-23T01:29:27.206Z,23.81
2022-12-23T01:29:37.221Z,23.81
2022-12-23T01:29:47.229Z,23.81
2022-12-23T01:29:57.336Z,23.80
2022-12-23T01:30:07.393Z,23.81
2022-12-23T01:30:17.400Z,23.81
2022-12-23T01:30:27.516Z,23.82
2022-12-23T01:30:37.534Z,23.83
2022-12-23T01:30:47.642Z,23.83
2022-12-23T01:30:57.908Z,23.83
2022-12-23T01:31:07.911Z,23.83
2022-12-23T01:31:17.969Z,23.84
2022-12-23T01:31:28.043Z,23.83
2022-12-23T01:31:38.194Z,23.81
2022-12-23T01:31:48.250Z,23.80
2022-12-23T01:31:58.244Z,23.81
2022-12-23T01:32:08.352Z,23.79
2022-12-23T01:32:18.364Z,23.79
2022-12-23T01:32:28.400Z,23.78
2022-12-23T01:32:38.644Z,23.78
2022-12-23T01:32:48.762Z,23.78
2022-12-23T01:32:58.789Z,23.77
2022-12-23T01:33:09.067Z,23.74
2022-12-23T01:33:19.075Z,23.75
2022-12-23T01:33:29.068Z,23.74
2022-12-23T01:33:39.071Z,23.73
2022-12-23T01:33:49.079Z,23.72
2022-12-23T01:33:59.072Z,23.73
2022-12-23T01:34:09.189Z,23.72
2022-12-23T01:34:19.205Z,23.72
2022-12-23T01:34:35.993Z,23.74
2022-12-23T01:34:39.221Z,23.69
2022-12-23T01:34:49.329Z,23.71
2022-12-23T01:34:59.332Z,23.73
2022-12-23T01:35:09.342Z,23.74
2022-12-23T01:35:19.354Z,23.75
2022-12-23T01:35:29.369Z,23.76
2022-12-23T01:35:39.381Z,23.77
2022-12-23T01:35:49.384Z,23.78
2022-12-23T01:35:59.381Z,23.78
2022-12-23T01:36:09.404Z,23.78
2022-12-23T01:36:19.389Z,23.78
2022-12-23T01:36:29.504Z,23.79
2022-12-23T01:36:39.517Z,23.79
2022-12-23T01:36:49.631Z,23.80
2022-12-23T01:36:59.634Z,23.80
2022-12-23T01:37:09.752Z,23.82
2022-12-23T01:37:19.753Z,23.82
2022-12-23T01:37:29.883Z,23.82
2022-12-23T01:37:40.149Z,23.84
2022-12-23T01:37:50.151Z,23.84
2022-12-23T01:38:00.175Z,23.84
2022-12-23T01:38:10.164Z,23.85
2022-12-23T01:38:20.171Z,23.84
2022-12-23T01:38:30.293Z,23.84
2022-12-23T01:38:40.294Z,23.83
2022-12-23T01:38:50.419Z,23.83
2022-12-23T01:39:00.416Z,23.84
2022-12-23T01:39:10.540Z,23.84
2022-12-23T01:39:20.547Z,23.84
2022-12-23T01:39:30.543Z,23.82
2022-12-23T01:39:40.562Z,23.81
2022-12-23T01:39:50.564Z,23.81
2022-12-23T01:40:00.572Z,23.82
2022-12-23T01:40:10.689Z,23.81
2022-12-23T01:40:20.690Z,23.82
2022-12-23T01:40:30.816Z,23.81
2022-12-23T01:40:40.815Z,23.81
2022-12-23T01:40:50.935Z,23.81
2022-12-23T01:41:00.939Z,23.82
2022-12-23T01:41:11.059Z,23.81
2022-12-23T01:41:21.061Z,23.81
2022-12-23T01:41:31.317Z,23.81
2022-12-23T01:41:41.311Z,23.80
2022-12-23T01:41:51.431Z,23.80
2022-12-23T01:42:01.720Z,23.79
2022-12-23T01:42:11.847Z,23.79
2022-12-23T01:42:21.851Z,23.80
2022-12-23T01:42:32.143Z,23.78
2022-12-23T01:42:42.146Z,23.77
2022-12-23T01:42:52.148Z,23.76
2022-12-23T01:43:02.152Z,23.73
2022-12-23T01:43:12.161Z,23.71
2022-12-23T01:43:22.174Z,23.71
2022-12-23T01:43:32.292Z,23.70
2022-12-23T01:43:42.265Z,23.67
2022-12-23T01:43:52.271Z,23.62
2022-12-23T01:44:02.271Z,23.61
2022-12-23T01:44:12.544Z,23.60
2022-12-23T01:44:22.553Z,23.58
2022-12-23T01:44:32.549Z,23.58
2022-12-23T01:44:42.558Z,23.59
2022-12-23T01:44:52.580Z,23.60
2022-12-23T01:45:02.637Z,23.60
2022-12-23T01:45:12.634Z,23.61
2022-12-23T01:45:22.642Z,23.62
2022-12-23T01:45:32.788Z,23.63
2022-12-23T01:45:42.873Z,23.64
2022-12-23T01:45:53.163Z,23.66
2022-12-23T01:46:03.276Z,23.67
2022-12-23T01:46:13.315Z,23.69
2022-12-23T01:46:23.442Z,23.70
2022-12-23T01:46:33.367Z,23.73
2022-12-23T01:46:43.391Z,23.74
2022-12-23T01:46:53.395Z,23.75
2022-12-23T01:47:03.528Z,23.76
2022-12-23T01:47:13.531Z,23.77
2022-12-23T01:47:23.535Z,23.78
2022-12-23T01:47:33.984Z,23.77
2022-12-23T01:47:43.996Z,23.77
2022-12-23T01:47:54.001Z,23.78
2022-12-23T01:48:04.012Z,23.77
2022-12-23T01:48:14.061Z,23.78
2022-12-23T01:48:24.048Z,23.77
2022-12-23T01:48:34.176Z,23.77
2022-12-23T01:48:44.190Z,23.78
2022-12-23T01:48:54.320Z,23.77
2022-12-23T01:49:04.321Z,23.77
2022-12-23T01:49:14.447Z,23.78
2022-12-23T01:49:24.466Z,23.77
2022-12-23T01:49:34.463Z,23.76
2022-12-23T01:49:44.458Z,23.71
2022-12-23T01:49:54.582Z,23.65
2022-12-23T01:50:04.608Z,23.63
2022-12-23T01:50:14.615Z,23.60
2022-12-23T01:50:24.644Z,23.59
2022-12-23T01:50:34.627Z,23.58
2022-12-23T01:50:44.745Z,23.58
2022-12-23T01:50:54.896Z,23.56
2022-12-23T01:51:04.894Z,23.53
2022-12-23T01:51:14.901Z,23.51
2022-12-23T01:51:24.921Z,23.52
2022-12-23T01:51:34.930Z,23.53
2022-12-23T01:51:44.934Z,23.53
2022-12-23T01:51:54.940Z,23.55
2022-12-23T01:52:04.956Z,23.56
2022-12-23T01:52:14.955Z,23.58
2022-12-23T01:52:24.968Z,23.59
2022-12-23T01:52:34.981Z,23.61
2022-12-23T01:52:44.995Z,23.63
2022-12-23T01:52:55.012Z,23.63
2022-12-23T01:53:08.182Z,23.65
2022-12-23T01:53:15.142Z,23.62
2022-12-23T01:53:25.249Z,23.64
2022-12-23T01:53:35.246Z,23.66
2022-12-23T01:53:45.516Z,23.66
2022-12-23T01:53:55.504Z,23.69
2022-12-23T01:54:05.630Z,23.69
2022-12-23T01:54:15.923Z,23.70
2022-12-23T01:54:25.926Z,23.71
2022-12-23T01:54:35.936Z,23.71
2022-12-23T01:54:45.965Z,23.71
2022-12-23T01:54:55.957Z,23.72
2022-12-23T01:55:06.087Z,23.73
2022-12-23T01:55:16.094Z,23.73
2022-12-23T01:55:26.095Z,23.73
2022-12-23T01:55:36.100Z,23.73
2022-12-23T01:55:46.219Z,23.73
2022-12-23T01:55:56.363Z,23.71
2022-12-23T01:56:06.372Z,23.69
2022-12-23T01:56:16.368Z,23.70
2022-12-23T01:56:26.368Z,23.68
2022-12-23T01:56:36.366Z,23.67
2022-12-23T01:56:46.496Z,23.68
2022-12-23T01:56:56.495Z,23.68
2022-12-23T01:57:06.620Z,23.68
2022-12-23T01:57:16.630Z,23.69
2022-12-23T01:57:26.763Z,23.68
2022-12-23T01:57:36.778Z,23.68
2022-12-23T01:57:46.793Z,23.68
2022-12-23T01:57:56.790Z,23.68
2022-12-23T01:58:06.827Z,23.70
2022-12-23T01:58:16.825Z,23.70
2022-12-23T01:58:26.846Z,23.71
2022-12-23T01:58:36.922Z,23.71
2022-12-23T01:58:46.920Z,23.73
2022-12-23T01:58:56.919Z,23.72
2022-12-23T01:59:07.037Z,23.70
2022-12-23T01:59:17.313Z,23.69
2022-12-23T01:59:27.303Z,23.69
2022-12-23T01:59:37.307Z,23.70
2022-12-23T01:59:47.308Z,23.70
2022-12-23T01:59:57.319Z,23.70
2022-12-23T02:00:07.435Z,23.68
2022-12-23T02:00:17.442Z,23.68
2022-12-23T02:00:27.463Z,23.67
2022-12-23T02:00:37.465Z,23.67
2022-12-23T02:00:47.467Z,23.69
2022-12-23T02:00:57.819Z,23.69
2022-12-23T02:01:07.875Z,23.70
2022-12-23T02:01:17.963Z,23.70
2022-12-23T02:01:28.386Z,23.70
2022-12-23T02:01:38.413Z,23.70
2022-12-23T02:01:48.435Z,23.71
2022-12-23T02:01:58.629Z,23.70
2022-12-23T02:02:08.669Z,23.71
2022-12-23T02:02:18.792Z,23.71
2022-12-23T02:02:28.737Z,23.71
2022-12-23T02:02:38.799Z,23.72
2022-12-23T02:02:48.999Z,23.70
2022-12-23T02:02:58.857Z,23.68
2022-12-23T02:03:09.052Z,23.67
2022-12-23T02:03:19.055Z,23.68
2022-12-23T02:03:29.115Z,23.67
2022-12-23T02:03:39.221Z,23.66
2022-12-23T02:03:49.451Z,23.65
2022-12-23T02:03:59.452Z,23.64
2022-12-23T02:04:09.575Z,23.64
2022-12-23T02:04:19.846Z,23.65
2022-12-23T02:04:29.842Z,23.65
2022-12-23T02:04:39.868Z,23.65
2022-12-23T02:04:49.859Z,23.66
2022-12-23T02:04:59.865Z,23.67
2022-12-23T02:05:09.987Z,23.68
2022-12-23T02:05:19.984Z,23.69
2022-12-23T02:05:30.110Z,23.71
2022-12-23T02:05:40.115Z,23.70
2022-12-23T02:05:50.278Z,23.71
2022-12-23T02:06:00.266Z,23.72
2022-12-23T02:06:10.384Z,23.73
2022-12-23T02:06:20.453Z,23.74
2022-12-23T02:06:30.714Z,23.74
2022-12-23T02:06:40.723Z,23.74
2022-12-23T02:06:50.727Z,23.74
2022-12-23T02:07:00.726Z,23.75
2022-12-23T02:07:10.850Z,23.75
2022-12-23T02:07:20.851Z,23.74
2022-12-23T02:07:30.970Z,23.74
2022-12-23T02:07:40.982Z,23.74
2022-12-23T02:07:51.020Z,23.72
2022-12-23T02:08:01.025Z,23.70
2022-12-23T02:08:11.146Z,23.68
2022-12-23T02:08:21.148Z,23.68
2022-12-23T02:08:31.165Z,23.67
2022-12-23T02:08:41.171Z,23.68
2022-12-23T02:08:51.177Z,23.67
2022-12-23T02:09:01.211Z,23.69
2022-12-23T02:09:11.211Z,23.68
2022-12-23T02:09:21.208Z,23.66
2022-12-23T02:09:31.384Z,23.65